createdAt,value
2017-04-09T00:02:23.142Z,12.03
2017-04-09T00:05:18.265Z,12.04
2017-04-09T00:08:13.261Z,12.04
2017-04-09T00:16:58.032Z,12.00
2017-04-09T00:19:53.018Z,12.01
2017-04-09T00:22:47.966Z,12.02
2017-04-09T00:25:42.899Z,12.02
2017-04-09T00:28:37.846Z,12.02
2017-04-09T00:31:32.858Z,12.01
2017-04-09T00:37:23.047Z,11.99
2017-04-09T00:40:18.060Z,11.98
2017-04-09T00:43:12.994Z,11.99
2017-04-09T00:46:07.985Z,12.00
2017-04-09T00:49:02.944Z,11.99
2017-04-09T00:51:57.946Z,12.00
2017-04-09T00:54:53.038Z,12.00
2017-04-09T00:57:48.008Z,12.01
2017-04-09T01:00:42.930Z,11.99
2017-04-09T01:03:37.886Z,11.95
2017-04-09T01:06:32.773Z,11.95
2017-04-09T01:09:28.145Z,11.95
2017-04-09T01:12:23.206Z,11.96
2017-04-09T01:15:18.225Z,11.97
2017-04-09T01:18:13.148Z,11.98
2017-04-09T01:21:08.041Z,12.00
2017-04-09T01:24:03.123Z,12.00
2017-04-09T01:26:58.168Z,12.00
2017-04-09T01:32:48.215Z,12.01
2017-04-09T01:35:43.177Z,12.00
2017-04-09T01:38:38.206Z,12.00
2017-04-09T01:41:33.150Z,12.00
2017-04-09T01:44:28.184Z,11.98
2017-04-09T01:47:23.141Z,11.92
2017-04-09T01:50:18.110Z,11.86
2017-04-09T01:53:13.056Z,11.84
2017-04-09T01:56:07.989Z,11.85
2017-04-09T01:59:02.924Z,11.86
2017-04-09T02:01:57.985Z,11.88
2017-04-09T02:04:52.908Z,11.87
2017-04-09T02:07:47.925Z,11.87
2017-04-09T02:10:42.858Z,11.86
2017-04-09T02:13:37.939Z,11.85
2017-04-09T02:16:32.866Z,11.83
2017-04-09T02:19:27.778Z,11.82
2017-04-09T02:22:22.914Z,11.81
2017-04-09T02:28:12.877Z,11.78
2017-04-09T02:31:07.924Z,11.77
2017-04-09T02:34:02.898Z,11.77
2017-04-09T02:36:57.801Z,11.74
2017-04-09T02:45:42.706Z,11.72
2017-04-09T02:48:37.656Z,11.70
2017-04-09T02:54:27.573Z,11.69
2017-04-09T02:57:22.548Z,11.67
2017-04-09T03:00:17.587Z,11.67
2017-04-09T03:06:07.506Z,11.65
2017-04-09T03:14:52.430Z,11.62
2017-04-09T03:17:47.428Z,11.60
2017-04-09T03:20:42.428Z,11.60
2017-04-09T03:26:32.375Z,11.60
2017-04-09T03:29:27.339Z,11.62
2017-04-09T03:32:22.374Z,11.62
2017-04-09T03:35:17.306Z,11.60
2017-04-09T03:41:07.183Z,11.58
2017-04-09T03:44:02.152Z,11.55
2017-04-09T03:46:57.038Z,11.54
2017-04-09T03:49:52.064Z,11.54
2017-04-09T03:52:47.056Z,11.49
2017-04-09T03:55:41.918Z,11.42
2017-04-09T03:58:36.838Z,11.42
2017-04-09T04:01:31.787Z,11.42
2017-04-09T04:04:26.772Z,11.44
2017-04-09T04:07:22.313Z,11.46
2017-04-09T04:10:17.257Z,11.45
2017-04-09T04:13:12.220Z,11.44
2017-04-09T04:16:07.190Z,11.43
2017-04-09T04:21:57.275Z,11.39
2017-04-09T04:24:52.214Z,11.40
2017-04-09T04:27:47.116Z,11.38
2017-04-09T04:30:41.988Z,11.39
2017-04-09T04:33:36.899Z,11.41
2017-04-09T04:39:26.786Z,11.43
2017-04-09T04:42:21.905Z,11.44
2017-04-09T04:45:16.918Z,11.46
2017-04-09T04:48:11.903Z,11.49
2017-04-09T04:51:06.751Z,11.50
2017-04-09T04:54:01.737Z,11.49
2017-04-09T04:56:56.753Z,11.48
2017-04-09T05:02:46.596Z,11.53
2017-04-09T05:05:41.523Z,11.53
2017-04-09T05:08:36.500Z,11.52
2017-04-09T05:14:26.411Z,11.60
2017-04-09T05:17:21.411Z,11.64
2017-04-09T05:20:16.357Z,11.70
2017-04-09T05:26:06.552Z,11.82
2017-04-09T05:29:01.536Z,11.84
2017-04-09T05:31:56.622Z,11.85
2017-04-09T05:34:51.551Z,11.89
2017-04-09T05:40:41.469Z,12.04
2017-04-09T05:43:36.445Z,12.12
2017-04-09T05:46:31.496Z,12.20
2017-04-09T05:49:26.657Z,12.27
2017-04-09T05:52:21.736Z,12.36
2017-04-09T05:55:16.702Z,12.48
2017-04-09T05:58:11.744Z,12.58
2017-04-09T06:01:06.805Z,12.67
2017-04-09T06:04:01.845Z,12.75
2017-04-09T06:06:56.951Z,12.79
2017-04-09T06:09:51.981Z,12.88
2017-04-09T06:12:47.121Z,13.05
2017-04-09T06:15:42.188Z,13.18
2017-04-09T06:18:37.261Z,13.27
2017-04-09T06:21:32.307Z,13.42
2017-04-09T06:24:27.342Z,13.54
2017-04-09T06:27:22.480Z,13.68
2017-04-09T06:30:17.617Z,13.83
2017-04-09T06:33:12.763Z,13.89
2017-04-09T06:36:07.803Z,14.03
2017-04-09T06:39:03.067Z,14.40
2017-04-09T06:41:58.323Z,14.93
2017-04-09T06:44:53.787Z,17.37
2017-04-09T06:47:49.750Z,21.42
2017-04-09T06:50:45.885Z,24.84
2017-04-09T06:53:42.066Z,25.61
2017-04-09T06:59:34.159Z,28.09
2017-04-09T07:02:29.973Z,27.43
2017-04-09T07:05:25.828Z,26.69
2017-04-09T07:08:21.814Z,28.19
2017-04-09T07:11:17.935Z,29.94
2017-04-09T07:14:14.144Z,30.24
2017-04-09T07:17:10.344Z,30.02
2017-04-09T07:20:06.532Z,29.84
2017-04-09T07:23:03.041Z,29.80
2017-04-09T07:25:59.493Z,29.49
2017-04-09T07:28:55.797Z,29.81
2017-04-09T07:31:52.166Z,29.90
2017-04-09T07:34:48.510Z,29.58
2017-04-09T07:37:44.674Z,29.30
2017-04-09T07:40:41.127Z,29.44
2017-04-09T07:43:37.265Z,29.96
2017-04-09T07:46:33.636Z,29.98
2017-04-09T07:49:29.910Z,30.15
2017-04-09T07:52:26.272Z,30.65
2017-04-09T07:55:22.507Z,30.52
2017-04-09T07:58:18.727Z,30.70
2017-04-09T08:01:15.032Z,30.79
2017-04-09T08:04:11.376Z,31.20
2017-04-09T08:07:07.573Z,31.00
2017-04-09T08:10:03.968Z,31.27
2017-04-09T08:13:00.355Z,31.66
2017-04-09T08:15:56.790Z,31.92
2017-04-09T08:18:53.103Z,31.87
2017-04-09T08:21:49.276Z,32.30
2017-04-09T08:24:44.680Z,31.77
2017-04-09T08:27:39.595Z,30.38
2017-04-09T08:30:34.866Z,30.66
2017-04-09T08:33:30.393Z,31.54
2017-04-09T08:36:25.850Z,32.11
2017-04-09T08:39:21.351Z,32.31
2017-04-09T08:42:17.024Z,32.42
2017-04-09T08:45:12.573Z,32.91
2017-04-09T08:48:08.374Z,32.99
2017-04-09T08:51:03.790Z,32.58
2017-04-09T08:53:58.496Z,31.86
2017-04-09T08:59:48.833Z,30.98
2017-04-09T09:02:43.606Z,30.36
2017-04-09T09:05:38.664Z,30.17
2017-04-09T09:08:34.030Z,31.04
2017-04-09T09:11:29.606Z,31.54
2017-04-09T09:14:24.819Z,31.66
2017-04-09T09:20:14.955Z,31.81
2017-04-09T09:23:10.279Z,31.90
2017-04-09T09:26:05.471Z,32.31
2017-04-09T09:29:00.840Z,32.43
2017-04-09T09:31:56.095Z,32.60
2017-04-09T09:34:50.966Z,32.44
2017-04-09T09:37:45.656Z,31.95
2017-04-09T09:40:40.327Z,32.41
2017-04-09T09:43:34.854Z,33.30
2017-04-09T09:46:29.478Z,33.66
2017-04-09T09:49:24.064Z,33.41
2017-04-09T09:52:18.488Z,32.81
2017-04-09T09:55:13.150Z,32.95
2017-04-09T09:58:07.922Z,33.20
2017-04-09T10:01:02.645Z,32.87
2017-04-09T10:03:57.552Z,34.32
2017-04-09T10:06:52.013Z,34.60
2017-04-09T10:09:46.435Z,34.05
2017-04-09T10:12:40.954Z,33.30
2017-04-09T10:15:35.594Z,33.60
2017-04-09T10:18:29.508Z,33.55
2017-04-09T10:21:23.140Z,31.35
2017-04-09T10:24:17.174Z,28.76
2017-04-09T10:27:11.414Z,26.74
2017-04-09T10:30:05.740Z,25.40
2017-04-09T10:33:00.226Z,24.53
2017-04-09T10:35:54.799Z,23.89
2017-04-09T10:38:49.219Z,23.36
2017-04-09T10:41:43.631Z,22.91
2017-04-09T10:47:32.238Z,22.13
2017-04-09T10:50:26.702Z,21.98
2017-04-09T10:53:21.055Z,21.88
2017-04-09T10:56:15.300Z,21.66
2017-04-09T10:59:09.638Z,21.43
2017-04-09T11:02:03.843Z,21.18
2017-04-09T11:04:57.432Z,21.03
2017-04-09T11:07:51.123Z,20.97
2017-04-09T11:10:45.044Z,20.88
2017-04-09T11:13:39.059Z,20.72
2017-04-09T11:19:27.024Z,20.38
2017-04-09T11:22:20.698Z,20.36
2017-04-09T11:25:14.235Z,20.24
2017-04-09T11:28:09.369Z,20.11
2017-04-09T11:33:59.439Z,19.91
2017-04-09T11:36:54.557Z,19.73
2017-04-09T11:39:49.014Z,19.63
2017-04-09T11:42:43.148Z,19.52
2017-04-09T11:45:37.730Z,19.43
2017-04-09T11:48:31.948Z,19.41
2017-04-09T11:51:26.050Z,19.42
2017-04-09T11:54:19.290Z,19.41
2017-04-09T11:57:14.520Z,19.43
2017-04-09T12:00:10.259Z,19.44
2017-04-09T12:03:05.575Z,19.42
2017-04-09T12:06:00.858Z,19.38
2017-04-09T12:11:51.526Z,19.35
2017-04-09T12:14:46.839Z,19.29
2017-04-09T12:17:42.213Z,19.26
2017-04-09T12:20:37.579Z,19.23
2017-04-09T12:23:32.823Z,19.21
2017-04-09T12:29:23.389Z,19.17
2017-04-09T12:32:18.663Z,19.12
2017-04-09T12:35:13.931Z,19.10
2017-04-09T12:38:09.127Z,19.06
2017-04-09T12:41:04.465Z,19.05
2017-04-09T12:43:59.716Z,19.02
2017-04-09T12:46:55.039Z,18.96
2017-04-09T12:49:50.181Z,18.95
2017-04-09T12:52:45.389Z,18.97
2017-04-09T12:55:40.641Z,19.01
2017-04-09T12:58:36.001Z,19.02
2017-04-09T13:01:31.249Z,19.01
2017-04-09T13:04:26.555Z,19.01
2017-04-09T13:10:17.082Z,18.99
2017-04-09T13:13:12.468Z,19.00
2017-04-09T13:16:07.690Z,19.00
2017-04-09T13:19:03.304Z,19.05
2017-04-09T13:21:58.611Z,19.08
2017-04-09T13:24:53.930Z,19.08
2017-04-09T13:27:49.162Z,19.09
2017-04-09T13:30:44.343Z,19.08
2017-04-09T13:33:39.539Z,19.08
2017-04-09T13:36:34.654Z,19.09
2017-04-09T13:42:24.968Z,19.04
2017-04-09T13:48:15.308Z,19.02
2017-04-09T13:51:10.352Z,19.01
2017-04-09T13:54:05.381Z,19.01
2017-04-09T13:56:59.848Z,19.02
2017-04-09T13:59:54.625Z,19.02
2017-04-09T14:02:49.354Z,19.01
2017-04-09T14:05:43.646Z,19.00
2017-04-09T14:08:38.098Z,19.00
2017-04-09T14:11:33.041Z,19.01
2017-04-09T14:14:27.930Z,19.04
2017-04-09T14:17:23.207Z,19.07
2017-04-09T14:20:18.519Z,19.09
2017-04-09T14:23:13.463Z,19.08
2017-04-09T14:26:08.713Z,19.07
2017-04-09T14:29:03.988Z,19.07
2017-04-09T18:11:49.086Z,15.15
2017-04-09T18:14:39.208Z,15.26
2017-04-09T18:17:34.189Z,15.23
2017-04-09T18:20:28.986Z,15.20
2017-04-09T18:23:23.925Z,15.16
2017-04-09T18:26:18.748Z,15.10
2017-04-09T18:29:12.809Z,15.01
2017-04-09T18:32:06.410Z,14.96
2017-04-09T18:35:01.187Z,14.90
2017-04-09T18:37:55.901Z,14.83
2017-04-09T18:40:50.529Z,14.74
2017-04-09T18:43:44.921Z,14.63
2017-04-09T18:46:38.950Z,14.53
2017-04-09T18:49:33.070Z,14.41
2017-04-09T18:52:27.091Z,14.30
2017-04-09T18:55:20.965Z,14.20
2017-04-09T18:58:14.729Z,14.10
2017-04-09T19:01:08.678Z,14.01
2017-04-09T19:04:02.652Z,13.92
2017-04-09T19:06:56.601Z,13.84
2017-04-09T19:09:50.539Z,13.75
2017-04-09T19:18:32.890Z,13.50
2017-04-09T19:21:27.528Z,13.42
2017-04-09T19:24:22.231Z,13.34
2017-04-09T19:27:16.758Z,13.27
2017-04-09T19:30:11.381Z,13.19
2017-04-09T19:33:05.966Z,13.11
2017-04-09T19:38:55.137Z,12.97
2017-04-09T19:41:49.578Z,12.90
2017-04-09T19:44:44.068Z,12.81
2017-04-09T19:47:38.517Z,12.75
2017-04-09T19:50:32.891Z,12.69
2017-04-09T19:53:27.334Z,12.61
2017-04-09T19:56:21.891Z,12.55
2017-04-09T20:02:10.925Z,12.44
2017-04-09T20:08:00.377Z,12.35
2017-04-09T20:10:55.260Z,12.30
2017-04-09T20:16:44.865Z,12.20
2017-04-09T20:19:39.742Z,12.14
2017-04-09T20:22:34.817Z,12.09
2017-04-09T20:28:24.710Z,12.00
2017-04-09T20:34:14.706Z,11.89
2017-04-09T20:37:09.729Z,11.84
2017-04-09T20:40:04.768Z,11.78
2017-04-09T20:42:59.833Z,11.73
2017-04-09T20:45:54.946Z,11.68
2017-04-09T20:48:49.803Z,11.63
2017-04-09T20:51:44.732Z,11.58
2017-04-09T20:54:39.659Z,11.54
2017-04-09T21:00:29.695Z,11.45
2017-04-09T21:03:24.731Z,11.40
2017-04-09T21:06:19.822Z,11.36
2017-04-09T21:09:14.846Z,11.31
2017-04-09T21:12:09.779Z,11.27
2017-04-09T21:15:04.721Z,11.23
2017-04-09T21:17:59.666Z,11.19
2017-04-09T21:20:54.599Z,11.14
2017-04-09T21:23:49.616Z,11.10
2017-04-09T21:26:44.658Z,11.06
2017-04-09T21:32:34.662Z,10.97
2017-04-09T21:35:29.615Z,10.92
2017-04-09T21:38:24.786Z,10.87
2017-04-09T21:44:15.018Z,10.78
2017-04-09T21:47:10.105Z,10.75
2017-04-09T21:53:00.198Z,10.65
2017-04-09T21:55:55.350Z,10.62
2017-04-09T21:58:50.348Z,10.58
2017-04-09T22:01:45.383Z,10.56
2017-04-09T22:07:35.337Z,10.48
2017-04-09T22:10:30.412Z,10.45
2017-04-09T22:13:25.350Z,10.41
2017-04-09T22:16:20.350Z,10.38
2017-04-09T22:22:10.541Z,10.31
2017-04-09T22:25:05.476Z,10.26
2017-04-09T22:28:00.483Z,10.22
2017-04-09T22:30:55.415Z,10.19
2017-04-09T22:39:40.448Z,10.12
2017-04-09T22:42:35.431Z,10.11
2017-04-09T22:48:25.533Z,10.03
2017-04-09T22:51:20.472Z,10.00
2017-04-09T22:54:15.487Z,9.95
2017-04-09T23:03:00.616Z,9.82
2017-04-09T23:05:55.560Z,9.79
2017-04-09T23:08:50.591Z,9.76
2017-04-09T23:11:45.538Z,9.73
2017-04-09T23:20:30.457Z,9.64
2017-04-09T23:23:25.516Z,9.61
2017-04-09T23:26:20.441Z,9.57
2017-04-09T23:32:10.401Z,9.51
2017-04-09T23:35:05.377Z,9.48
2017-04-09T23:38:00.361Z,9.44
2017-04-09T23:40:55.199Z,9.41
2017-04-09T23:43:50.203Z,9.36
2017-04-09T23:49:41.086Z,9.30
2017-04-09T23:52:35.168Z,9.26
2017-04-09T23:58:25.089Z,9.21
